createdAt,value
2023-05-10T00:00:17.752Z,10.23
2023-05-10T00:03:23.886Z,10.30
2023-05-10T00:06:27.160Z,10.33
2023-05-10T00:09:30.167Z,10.33
2023-05-10T00:12:33.235Z,9.43
2023-05-10T00:15:36.668Z,9.37
2023-05-10T00:18:41.233Z,8.70
2023-05-10T00:21:44.286Z,9.17
2023-05-10T00:24:47.336Z,8.50
2023-05-10T00:27:50.601Z,9.27
2023-05-10T00:30:53.679Z,9.83
2023-05-10T00:33:58.352Z,9.43
2023-05-10T00:37:01.405Z,8.80
2023-05-10T00:40:04.521Z,8.40
2023-05-10T00:43:07.572Z,8.90
2023-05-10T00:46:10.679Z,8.50
2023-05-10T00:49:15.290Z,7.77
2023-05-10T00:52:18.432Z,9.00
2023-05-10T00:55:22.613Z,8.17
2023-05-10T00:58:29.209Z,7.30
2023-05-10T01:01:33.334Z,7.60
2023-05-10T01:04:38.294Z,7.43
2023-05-10T01:07:42.195Z,7.50
2023-05-10T01:10:46.657Z,8.13
2023-05-10T01:13:54.905Z,7.53
2023-05-10T01:16:58.433Z,6.47
2023-05-10T01:20:02.997Z,7.00
2023-05-10T01:23:33.137Z,7.10
2023-05-10T01:27:00.540Z,6.40
2023-05-10T01:30:41.519Z,6.60
2023-05-10T01:33:51.743Z,6.43
2023-05-10T01:37:00.787Z,7.20
2023-05-10T01:40:12.552Z,5.90
2023-05-10T01:43:19.904Z,6.03
2023-05-10T01:46:29.576Z,6.90
2023-05-10T01:49:42.036Z,5.83
2023-05-10T01:52:47.018Z,5.50
2023-05-10T01:55:53.466Z,5.50
2023-05-10T01:58:59.018Z,5.50
2023-05-10T02:02:04.251Z,5.70
2023-05-10T02:05:10.398Z,5.60
2023-05-10T02:08:14.513Z,5.03
2023-05-10T02:11:19.754Z,5.30
2023-05-10T02:14:25.515Z,5.10
2023-05-10T02:17:29.825Z,5.70
2023-05-10T02:20:35.546Z,5.73
2023-05-10T02:23:40.365Z,5.27
2023-05-10T02:26:45.692Z,5.00
2023-05-10T02:29:49.496Z,5.10
2023-05-10T02:32:53.782Z,4.70
2023-05-10T02:35:58.908Z,5.20
2023-05-10T02:39:04.140Z,5.00
2023-05-10T02:42:07.837Z,4.97
2023-05-10T02:45:15.554Z,4.93
2023-05-10T02:48:19.099Z,4.90
2023-05-10T02:51:27.361Z,4.63
2023-05-10T02:54:35.454Z,5.67
2023-05-10T02:57:43.068Z,9.93
2023-05-10T03:00:46.352Z,5.70
2023-05-10T03:03:49.439Z,5.20
2023-05-10T03:06:54.231Z,5.50
2023-05-10T03:09:57.400Z,5.90
2023-05-10T03:13:13.702Z,6.13
2023-05-10T03:16:19.221Z,6.07
2023-05-10T03:19:28.664Z,25.43
2023-05-10T03:22:36.581Z,21.87
2023-05-10T03:25:42.010Z,49.20
2023-05-10T03:28:45.967Z,48.30
2023-05-10T03:31:49.241Z,32.73
2023-05-10T03:34:52.598Z,37.40
2023-05-10T03:37:57.071Z,38.70
2023-05-10T03:41:00.094Z,93.17
2023-05-10T03:44:03.383Z,54.53
2023-05-10T03:47:06.581Z,35.50
2023-05-10T03:50:11.337Z,39.20
2023-05-10T03:53:15.819Z,59.20
2023-05-10T03:56:18.941Z,122.07
2023-05-10T03:59:21.972Z,105.60
2023-05-10T04:02:25.277Z,93.40
2023-05-10T04:05:28.486Z,136.20
2023-05-10T04:08:33.426Z,80.47
2023-05-10T04:11:36.468Z,80.53
2023-05-10T04:14:39.566Z,59.97
2023-05-10T04:17:42.651Z,71.73
2023-05-10T04:20:45.793Z,69.40
2023-05-10T04:23:50.300Z,58.93
2023-05-10T04:26:53.861Z,64.20
2023-05-10T04:29:57.752Z,45.73
2023-05-10T04:33:00.972Z,47.63
2023-05-10T04:36:04.444Z,42.87
2023-05-10T04:39:09.519Z,42.33
2023-05-10T04:42:12.856Z,32.27
2023-05-10T04:45:16.726Z,39.53
2023-05-10T04:48:19.747Z,38.27
2023-05-10T04:51:22.839Z,31.73
2023-05-10T04:54:27.492Z,33.67
2023-05-10T04:57:30.490Z,33.70
2023-05-10T05:00:33.603Z,28.97
2023-05-10T05:03:36.776Z,26.40
2023-05-10T05:06:39.843Z,32.23
2023-05-10T05:09:44.282Z,20.40
2023-05-10T05:12:47.382Z,19.27
2023-05-10T05:15:50.431Z,23.80
2023-05-10T05:18:53.503Z,20.90
2023-05-10T05:21:56.473Z,18.93
2023-05-10T05:25:01.639Z,21.00
2023-05-10T05:28:04.672Z,29.80
2023-05-10T05:31:08.775Z,19.37
2023-05-10T05:34:11.993Z,20.23
2023-05-10T05:37:16.334Z,13.97
2023-05-10T05:40:21.482Z,17.30
2023-05-10T05:43:24.856Z,19.30
2023-05-10T05:46:27.898Z,19.00
2023-05-10T05:49:31.056Z,11.87
2023-05-10T05:52:34.129Z,15.80
2023-05-10T05:55:38.650Z,14.50
2023-05-10T05:58:41.909Z,13.10
2023-05-10T06:01:44.924Z,10.30
2023-05-10T06:04:47.995Z,13.17
2023-05-10T06:07:51.075Z,15.90
2023-05-10T06:10:55.496Z,11.80
2023-05-10T06:13:58.504Z,13.27
2023-05-10T06:17:02.082Z,15.37
2023-05-10T06:20:06.336Z,9.80
2023-05-10T06:23:09.415Z,11.57
2023-05-10T06:26:14.895Z,7.03
2023-05-10T06:29:17.974Z,8.10
2023-05-10T06:32:21.053Z,12.37
2023-05-10T06:35:24.272Z,10.77
2023-05-10T06:38:27.445Z,7.90
2023-05-10T06:41:31.919Z,10.97
2023-05-10T06:44:34.974Z,7.40
2023-05-10T06:47:39.201Z,9.80
2023-05-10T06:50:42.644Z,9.03
2023-05-10T06:53:45.681Z,6.23
2023-05-10T06:56:50.284Z,6.67
2023-05-10T06:59:54.120Z,4.87
2023-05-10T07:02:57.229Z,5.90
2023-05-10T07:06:05.436Z,6.90
2023-05-10T07:09:08.741Z,7.50
2023-05-10T07:12:15.302Z,9.00
2023-05-10T07:15:19.467Z,7.70
2023-05-10T07:18:22.702Z,5.70
2023-05-10T07:21:26.329Z,6.23
2023-05-10T07:24:29.366Z,8.17
2023-05-10T07:27:33.833Z,39.03
2023-05-10T07:30:37.219Z,29.73
2023-05-10T07:33:40.987Z,25.80
2023-05-10T07:36:44.011Z,25.93
2023-05-10T07:39:47.084Z,36.77
2023-05-10T07:42:51.569Z,54.90
2023-05-10T07:45:56.273Z,53.60
2023-05-10T07:48:59.695Z,49.97
2023-05-10T07:52:02.748Z,58.77
2023-05-10T07:55:06.498Z,51.07
2023-05-10T07:58:10.957Z,47.13
2023-05-10T08:01:14.093Z,40.20
2023-05-10T08:04:17.166Z,40.33
2023-05-10T08:07:20.303Z,47.27
2023-05-10T08:10:23.302Z,33.90
2023-05-10T08:13:27.960Z,38.47
2023-05-10T08:16:31.084Z,47.03
2023-05-10T08:19:34.148Z,33.50
2023-05-10T08:22:37.313Z,44.57
2023-05-10T08:25:40.338Z,43.70
2023-05-10T08:28:44.838Z,32.63
2023-05-10T08:31:47.975Z,32.73
2023-05-10T08:34:50.989Z,31.87
2023-05-10T08:37:54.025Z,26.33
2023-05-10T08:40:59.731Z,29.73
2023-05-10T08:44:07.233Z,31.90
2023-05-10T08:47:12.581Z,22.33
2023-05-10T08:50:17.317Z,24.10
2023-05-10T08:53:22.180Z,152.87
2023-05-10T08:56:25.563Z,58.47
2023-05-10T08:59:30.608Z,40.43
2023-05-10T09:02:33.748Z,38.00
2023-05-10T09:05:38.467Z,54.77
2023-05-10T09:08:43.892Z,43.83
2023-05-10T09:11:47.322Z,43.90
2023-05-10T09:14:52.921Z,35.67
2023-05-10T09:17:57.397Z,35.53
2023-05-10T09:21:00.487Z,34.93
2023-05-10T09:24:06.272Z,30.30
2023-05-10T09:27:09.270Z,32.53
2023-05-10T09:30:18.190Z,30.83
2023-05-10T09:33:21.312Z,25.40
2023-05-10T09:36:24.305Z,29.03
2023-05-10T09:39:34.169Z,25.30
2023-05-10T09:42:37.298Z,21.53
2023-05-10T09:45:43.607Z,14.20
2023-05-10T09:48:48.224Z,19.03
2023-05-10T09:52:03.539Z,16.37
2023-05-10T09:55:07.287Z,22.73
2023-05-10T09:58:12.032Z,18.57
2023-05-10T10:01:16.684Z,20.33
2023-05-10T10:04:19.847Z,13.83
2023-05-10T10:07:26.593Z,13.30
2023-05-10T10:10:30.626Z,11.00
2023-05-10T10:13:34.315Z,21.00
2023-05-10T10:16:48.450Z,29.57
2023-05-10T10:19:55.050Z,20.23
2023-05-10T10:22:58.148Z,18.90
2023-05-10T10:26:01.990Z,19.03
2023-05-10T10:29:18.617Z,18.40
2023-05-10T10:32:31.817Z,18.77
2023-05-10T10:35:35.396Z,23.03
2023-05-10T10:38:40.754Z,9.77
2023-05-10T10:41:52.284Z,16.03
2023-05-10T10:45:14.211Z,12.90
2023-05-10T10:48:25.934Z,15.43
2023-05-10T10:51:32.279Z,10.97
2023-05-10T10:54:35.289Z,11.57
2023-05-10T10:57:49.786Z,14.60
2023-05-10T11:01:11.012Z,8.17
2023-05-10T11:04:22.662Z,12.77
2023-05-10T11:07:25.823Z,9.57
2023-05-10T11:10:29.810Z,12.37
2023-05-10T11:13:34.835Z,8.83
2023-05-10T11:16:44.064Z,10.27
2023-05-10T11:20:08.595Z,9.83
2023-05-10T11:23:17.008Z,9.10
2023-05-10T11:26:24.201Z,7.13
2023-05-10T11:29:27.704Z,7.43
2023-05-10T11:32:31.678Z,7.03
2023-05-10T11:35:43.145Z,7.70
2023-05-10T11:38:46.807Z,8.37
2023-05-10T11:41:51.323Z,6.60
2023-05-10T11:44:54.546Z,6.63
2023-05-10T11:47:59.054Z,8.57
2023-05-10T11:51:04.750Z,6.13
2023-05-10T11:54:10.193Z,7.93
2023-05-10T11:57:13.284Z,5.13
2023-05-10T12:00:17.276Z,6.70
2023-05-10T12:03:21.060Z,6.20
2023-05-10T12:06:29.106Z,6.00
2023-05-10T12:09:43.372Z,12.83
2023-05-10T12:12:48.566Z,6.87
2023-05-10T12:15:51.636Z,5.20
2023-05-10T12:18:56.187Z,7.90
2023-05-10T12:22:01.202Z,4.70
2023-05-10T12:25:05.300Z,11.87
2023-05-10T12:28:09.716Z,8.07
2023-05-10T12:31:12.942Z,11.47
2023-05-10T12:34:25.594Z,7.73
2023-05-10T12:37:31.573Z,11.50
2023-05-10T12:40:34.639Z,5.23
2023-05-10T12:43:38.633Z,13.53
2023-05-10T12:46:41.621Z,7.20
2023-05-10T12:49:44.759Z,9.07
2023-05-10T12:52:49.180Z,5.73
2023-05-10T12:55:52.228Z,5.53
2023-05-10T12:58:55.270Z,9.27
2023-05-10T13:01:59.467Z,6.23
2023-05-10T13:05:02.604Z,6.27
2023-05-10T13:08:07.484Z,8.13
2023-05-10T13:11:10.552Z,4.83
2023-05-10T13:14:14.386Z,4.97
2023-05-10T13:17:17.430Z,5.47
2023-05-10T13:20:20.625Z,5.17
2023-05-10T13:23:25.087Z,5.70
2023-05-10T13:26:28.108Z,5.07
2023-05-10T13:29:31.121Z,4.33
2023-05-10T13:32:34.892Z,6.30
2023-05-10T13:35:37.982Z,5.53
2023-05-10T13:38:42.458Z,5.70
2023-05-10T13:41:45.479Z,4.77
2023-05-10T13:44:48.538Z,5.00
2023-05-10T13:47:51.627Z,4.73
2023-05-10T13:50:54.705Z,4.93
2023-05-10T13:53:59.092Z,4.30
2023-05-10T13:57:02.290Z,4.73
2023-05-10T14:00:06.462Z,4.93
2023-05-10T14:03:12.096Z,5.57
2023-05-10T14:06:15.539Z,5.80
2023-05-10T14:09:22.621Z,4.30
2023-05-10T14:12:25.663Z,5.00
2023-05-10T14:15:28.927Z,4.40
2023-05-10T14:18:32.188Z,4.83
2023-05-10T14:21:35.595Z,4.63
2023-05-10T14:24:40.472Z,4.67
2023-05-10T14:27:43.552Z,4.57
2023-05-10T14:30:46.659Z,4.63
2023-05-10T14:33:49.869Z,5.07
2023-05-10T14:36:52.956Z,4.00
2023-05-10T14:39:57.412Z,4.30
2023-05-10T14:43:00.484Z,3.90
2023-05-10T14:46:03.769Z,3.70
2023-05-10T14:49:06.818Z,4.03
2023-05-10T14:52:09.881Z,4.37
2023-05-10T14:55:14.451Z,4.67
2023-05-10T14:58:17.537Z,5.53
2023-05-10T15:01:20.668Z,4.77
2023-05-10T15:04:25.452Z,4.83
2023-05-10T15:07:30.170Z,9.97
2023-05-10T15:10:34.647Z,11.30
2023-05-10T15:13:37.707Z,18.70
2023-05-10T15:16:40.747Z,16.90
2023-05-10T15:19:43.902Z,19.07
2023-05-10T15:22:46.929Z,16.87
2023-05-10T15:25:51.431Z,15.80
2023-05-10T15:28:55.311Z,13.73
2023-05-10T15:31:58.284Z,16.27
2023-05-10T15:35:01.788Z,15.37
2023-05-10T15:38:04.758Z,42.47
2023-05-10T15:41:09.095Z,33.37
2023-05-10T15:44:12.100Z,42.87
2023-05-10T15:47:15.081Z,32.13
2023-05-10T15:50:18.416Z,37.17
2023-05-10T15:53:21.525Z,35.77
2023-05-10T15:56:26.825Z,32.93
2023-05-10T15:59:29.862Z,27.07
2023-05-10T16:02:33.068Z,28.23
2023-05-10T16:05:36.204Z,29.10
2023-05-10T16:08:39.276Z,27.17
2023-05-10T16:11:44.341Z,22.43
2023-05-10T16:14:47.683Z,18.33
2023-05-10T16:17:51.235Z,19.43
2023-05-10T16:20:54.714Z,22.07
2023-05-10T16:23:57.940Z,21.40
2023-05-10T16:27:03.205Z,17.97
2023-05-10T16:30:07.644Z,16.50
2023-05-10T16:33:10.681Z,16.00
2023-05-10T16:36:13.741Z,19.23
2023-05-10T16:39:16.731Z,13.93
2023-05-10T16:42:21.153Z,15.27
2023-05-10T16:45:24.620Z,12.50
2023-05-10T16:48:27.613Z,8.83
2023-05-10T16:51:30.745Z,13.80
2023-05-10T16:54:33.821Z,12.17
2023-05-10T16:57:38.319Z,54.37
2023-05-10T17:00:41.436Z,50.70
2023-05-10T17:03:44.759Z,49.43
2023-05-10T17:06:48.012Z,49.07
2023-05-10T17:09:51.043Z,40.80
2023-05-10T17:12:55.503Z,46.13
2023-05-10T17:15:59.080Z,36.73
2023-05-10T17:19:02.199Z,36.23
2023-05-10T17:22:05.298Z,23.57
2023-05-10T17:25:09.301Z,29.30
2023-05-10T17:28:13.843Z,24.40
2023-05-10T17:31:17.165Z,41.87
2023-05-10T17:34:20.251Z,52.37
2023-05-10T17:37:23.311Z,60.77
2023-05-10T17:40:26.271Z,105.00
2023-05-10T17:43:30.677Z,83.13
2023-05-10T17:46:33.676Z,62.50
2023-05-10T17:49:36.851Z,66.40
2023-05-10T17:52:39.956Z,61.87
2023-05-10T17:55:43.900Z,54.60
2023-05-10T17:58:48.338Z,45.90
2023-05-10T18:01:51.387Z,54.13
2023-05-10T18:04:55.186Z,47.20
2023-05-10T18:07:59.844Z,36.87
2023-05-10T18:11:02.907Z,41.57
2023-05-10T18:14:07.277Z,42.77
2023-05-10T18:17:11.029Z,39.73
2023-05-10T18:20:14.282Z,22.83
2023-05-10T18:23:17.278Z,23.50
2023-05-10T18:26:20.311Z,27.83
2023-05-10T18:29:24.727Z,27.57
2023-05-10T18:32:28.019Z,25.07
2023-05-10T18:35:31.090Z,25.53
2023-05-10T18:38:34.225Z,20.60
2023-05-10T18:41:37.415Z,20.33
2023-05-10T18:44:41.847Z,20.00
2023-05-10T18:47:45.057Z,19.40
2023-05-10T18:50:48.578Z,16.70
2023-05-10T18:53:51.793Z,16.10
2023-05-10T18:56:54.831Z,15.40
2023-05-10T18:59:59.230Z,16.33
2023-05-10T19:03:02.349Z,13.23
2023-05-10T19:06:05.517Z,14.10
2023-05-10T19:09:09.919Z,16.27
2023-05-10T19:12:12.996Z,26.57
2023-05-10T19:15:19.221Z,20.13
2023-05-10T19:18:24.476Z,23.20
2023-05-10T19:21:27.856Z,14.60
2023-05-10T19:24:31.038Z,16.63
2023-05-10T19:27:34.171Z,13.90
2023-05-10T19:30:38.631Z,16.30
2023-05-10T19:33:41.694Z,13.63
2023-05-10T19:36:44.999Z,17.83
2023-05-10T19:39:48.118Z,22.20
2023-05-10T19:42:51.324Z,21.53
2023-05-10T19:45:56.082Z,28.03
2023-05-10T19:48:59.180Z,13.93
2023-05-10T19:52:02.238Z,17.03
2023-05-10T19:55:05.937Z,14.00
2023-05-10T19:58:09.079Z,15.63
2023-05-10T20:01:13.817Z,14.10
2023-05-10T20:04:16.945Z,18.20
2023-05-10T20:07:20.013Z,13.30
2023-05-10T20:10:25.184Z,16.37
2023-05-10T20:13:29.990Z,14.73
2023-05-10T20:16:34.498Z,22.23
2023-05-10T20:19:37.640Z,17.17
2023-05-10T20:22:41.088Z,18.13
2023-05-10T20:25:44.467Z,15.73
2023-05-10T20:28:47.512Z,15.73
2023-05-10T20:31:52.055Z,20.30
2023-05-10T20:34:55.441Z,14.90
2023-05-10T20:38:00.073Z,13.03
2023-05-10T20:41:03.127Z,14.07
2023-05-10T20:44:06.768Z,12.47
2023-05-10T20:47:11.368Z,16.60
2023-05-10T20:50:14.589Z,12.67
2023-05-10T20:53:18.557Z,13.20
2023-05-10T20:56:21.834Z,12.33
2023-05-10T20:59:24.926Z,14.00
2023-05-10T21:02:29.484Z,11.87
2023-05-10T21:05:32.717Z,14.57
2023-05-10T21:08:35.941Z,12.43
2023-05-10T21:11:39.482Z,11.23
2023-05-10T21:14:43.174Z,10.70
2023-05-10T21:17:47.719Z,10.83
2023-05-10T21:20:50.759Z,10.00
2023-05-10T21:23:53.784Z,10.23
2023-05-10T21:26:56.844Z,12.47
2023-05-10T21:29:59.953Z,11.43
2023-05-10T21:33:04.603Z,9.57
2023-05-10T21:36:08.586Z,10.63
2023-05-10T21:39:12.206Z,10.30
2023-05-10T21:42:15.328Z,9.37
2023-05-10T21:45:18.909Z,8.93
2023-05-10T21:48:23.407Z,9.53
2023-05-10T21:51:26.415Z,8.97
2023-05-10T21:54:29.234Z,8.60
2023-05-10T21:57:32.959Z,8.63
2023-05-10T22:00:36.115Z,8.83
2023-05-10T22:03:40.633Z,8.60
2023-05-10T22:06:44.266Z,9.03
2023-05-10T22:09:47.440Z,8.93
2023-05-10T22:12:50.526Z,8.53
2023-05-10T22:15:53.648Z,9.23
2023-05-10T22:18:58.242Z,8.10
2023-05-10T22:22:01.408Z,8.67
2023-05-10T22:25:04.663Z,8.70
2023-05-10T22:28:09.339Z,7.90
2023-05-10T22:31:12.823Z,8.57
2023-05-10T22:34:17.335Z,10.00
2023-05-10T22:37:20.409Z,8.40
2023-05-10T22:40:23.488Z,9.00
2023-05-10T22:43:26.546Z,9.20
2023-05-10T22:46:30.450Z,7.27
2023-05-10T22:49:35.048Z,7.80
2023-05-10T22:52:39.449Z,8.23
2023-05-10T22:55:42.652Z,8.27
2023-05-10T22:58:45.803Z,8.70
2023-05-10T23:01:49.305Z,8.17
2023-05-10T23:04:53.768Z,7.50
2023-05-10T23:07:56.902Z,8.53
2023-05-10T23:11:00.007Z,7.67
2023-05-10T23:14:03.133Z,8.73
2023-05-10T23:17:06.329Z,7.80
2023-05-10T23:20:12.427Z,7.83
2023-05-10T23:23:15.842Z,8.83
2023-05-10T23:26:18.847Z,8.70
2023-05-10T23:29:22.001Z,9.13
2023-05-10T23:32:25.082Z,8.10
2023-05-10T23:35:29.587Z,8.80
2023-05-10T23:38:32.629Z,7.93
2023-05-10T23:41:35.731Z,8.30
2023-05-10T23:44:38.804Z,9.17
2023-05-10T23:47:42.030Z,9.10
2023-05-10T23:50:47.169Z,9.13
2023-05-10T23:53:50.268Z,8.73
2023-05-10T23:56:53.423Z,9.27
2023-05-10T23:59:56.457Z,8.07
